Time;durP1;ratioP1;P1;durP2;ratioP2;P2;SDS_P1;SDS_P2;PMS_P1;PMS_P2;Temp;Humidity;BMP_temperature;BMP_pressure;BME280_temperature;BME280_humidity;BME280_pressure;Samples;Min_cycle;Max_cycle;Signal;HPM_P1;HPM_P2
2023/09/06 00:02:02;;;;;;;5.45;4.13;;;;;;;;;;5012523;28;20202;-72
2023/09/06 00:04:28;;;;;;;6.45;3.67;;;;;;;;;;5019831;28;20190;-73
2023/09/06 00:06:53;;;;;;;7.00;3.80;;;;;;;;;;5023703;28;20205;-73
2023/09/06 00:09:19;;;;;;;3.40;3.10;;;;;;;;;;5028227;28;20684;-72
2023/09/06 00:11:44;;;;;;;3.42;3.13;;;;;;;;;;5028869;28;20190;-72
2023/09/06 00:14:11;;;;;;;5.18;3.70;;;;;;;;;;5035360;28;20684;-73
2023/09/06 00:16:36;;;;;;;8.25;3.75;;;;;;;;;;5015807;28;20185;-72
2023/09/06 00:19:02;;;;;;;4.03;3.63;;;;;;;;;;5029841;28;20268;-73
2023/09/06 00:21:28;;;;;;;4.88;3.83;;;;;;;;;;5030536;28;20194;-72
2023/09/06 00:23:53;;;;;;;4.05;3.65;;;;;;;;;;5013639;28;20198;-73
2023/09/06 00:26:19;;;;;;;4.95;3.63;;;;;;;;;;5025587;28;20210;-72
2023/09/06 00:28:45;;;;;;;3.75;3.45;;;;;;;;;;5013186;28;20200;-73
2023/09/06 00:31:11;;;;;;;4.25;3.85;;;;;;;;;;5028307;28;20269;-73
2023/09/06 00:33:36;;;;;;;4.50;3.30;;;;;;;;;;5028404;28;20273;-73
2023/09/06 00:36:04;;;;;;;6.50;3.83;;;;;;;;;;5023726;28;20194;-73
2023/09/06 00:38:29;;;;;;;5.18;3.97;;;;;;;;;;5018588;28;20190;-73
2023/09/06 00:40:55;;;;;;;3.65;3.33;;;;;;;;;;5018765;28;20199;-73
2023/09/06 00:43:20;;;;;;;8.80;4.28;;;;;;;;;;5017431;28;20340;-72
2023/09/06 00:45:48;;;;;;;7.63;4.13;;;;;;;;;;5027944;28;20245;-72
2023/09/06 00:48:26;;;;;;;6.00;4.95;;;;;;;;;;5032895;28;20272;-72
2023/09/06 00:50:54;;;;;;;6.13;4.47;;;;;;;;;;5029003;28;20619;-72
2023/09/06 00:53:21;;;;;;;6.00;4.57;;;;;;;;;;5009934;28;20187;-72
2023/09/06 00:55:48;;;;;;;5.25;4.60;;;;;;;;;;5026618;28;20261;-72
2023/09/06 00:58:18;;;;;;;4.85;4.35;;;;;;;;;;5021527;28;20207;-72
2023/09/06 01:00:44;;;;;;;4.68;4.25;;;;;;;;;;5029398;28;20590;-72
2023/09/06 01:03:10;;;;;;;5.50;4.10;;;;;;;;;;5026151;28;20323;-72
2023/09/06 01:05:47;;;;;;;6.28;4.38;;;;;;;;;;5028764;28;20218;-72
2023/09/06 01:08:20;;;;;;;4.85;4.25;;;;;;;;;;5022801;28;20221;-73
2023/09/06 01:10:45;;;;;;;7.13;5.00;;;;;;;;;;5019825;28;20191;-73
2023/09/06 01:13:10;;;;;;;7.05;4.63;;;;;;;;;;5039571;28;20204;-73
2023/09/06 01:15:44;;;;;;;4.80;4.30;;;;;;;;;;5031572;28;20634;-72
2023/09/06 01:18:09;;;;;;;6.28;4.40;;;;;;;;;;5033163;28;20301;-73
2023/09/06 01:20:49;;;;;;;8.05;4.63;;;;;;;;;;5024832;28;20202;-73
2023/09/06 01:23:33;;;;;;;5.90;4.95;;;;;;;;;;5018568;28;20186;-73
2023/09/06 01:25:58;;;;;;;7.97;4.35;;;;;;;;;;5031791;28;20517;-72
2023/09/06 01:28:27;;;;;;;5.18;4.53;;;;;;;;;;5029753;28;20244;-72
2023/09/06 01:30:56;;;;;;;8.82;4.70;;;;;;;;;;5022747;28;20217;-73
2023/09/06 01:33:22;;;;;;;7.68;4.30;;;;;;;;;;5027962;28;20197;-73
2023/09/06 01:35:49;;;;;;;5.50;4.50;;;;;;;;;;5025463;28;20684;-72
2023/09/06 01:38:15;;;;;;;5.57;4.50;;;;;;;;;;5025130;28;20190;-72
2023/09/06 01:40:41;;;;;;;5.93;5.07;;;;;;;;;;5031105;28;20221;-72
2023/09/06 01:43:08;;;;;;;5.35;4.70;;;;;;;;;;5031617;28;20356;-72
2023/09/06 01:45:35;;;;;;;7.72;5.70;;;;;;;;;;5027728;28;20221;-72
2023/09/06 01:48:02;;;;;;;6.55;5.95;;;;;;;;;;5020903;28;20193;-72
2023/09/06 01:50:28;;;;;;;7.80;5.75;;;;;;;;;;5027484;28;20223;-72
2023/09/06 01:52:55;;;;;;;8.65;6.88;;;;;;;;;;5008486;28;20220;-72
2023/09/06 01:55:21;;;;;;;8.18;7.03;;;;;;;;;;5032809;28;20266;-72
2023/09/06 01:57:46;;;;;;;7.63;6.82;;;;;;;;;;5016337;28;20697;-72
2023/09/06 02:00:19;;;;;;;7.18;6.47;;;;;;;;;;5025727;28;20191;-72
2023/09/06 02:02:45;;;;;;;7.22;6.53;;;;;;;;;;5019652;28;20312;-72
2023/09/06 02:05:11;;;;;;;7.90;6.10;;;;;;;;;;5030107;28;20218;-72
2023/09/06 02:07:36;;;;;;;6.88;6.18;;;;;;;;;;5019265;28;20210;-72
2023/09/06 02:10:03;;;;;;;7.32;6.10;;;;;;;;;;5015260;28;20188;-72
2023/09/06 02:12:29;;;;;;;7.30;5.60;;;;;;;;;;5029265;28;20186;-72
2023/09/06 02:14:56;;;;;;;9.13;7.03;;;;;;;;;;5023961;28;20193;-73
2023/09/06 02:17:24;;;;;;;7.90;6.35;;;;;;;;;;5028816;28;20230;-71
2023/09/06 02:19:50;;;;;;;5.93;5.32;;;;;;;;;;5031164;28;20194;-71
2023/09/06 02:22:15;;;;;;;6.35;5.72;;;;;;;;;;5044971;28;20633;-72
2023/09/06 02:24:40;;;;;;;6.20;5.00;;;;;;;;;;5030262;28;20238;-72
2023/09/06 02:27:06;;;;;;;6.13;4.93;;;;;;;;;;5041626;28;20178;-72
2023/09/06 02:29:31;;;;;;;7.50;5.63;;;;;;;;;;5026597;28;20256;-72
2023/09/06 02:31:57;;;;;;;8.35;4.93;;;;;;;;;;5020492;28;20222;-72
2023/09/06 02:34:22;;;;;;;6.75;5.68;;;;;;;;;;5017962;28;20197;-72
2023/09/06 02:36:47;;;;;;;7.78;5.63;;;;;;;;;;5030521;28;20222;-72
2023/09/06 02:39:13;;;;;;;8.10;5.88;;;;;;;;;;5026925;28;20197;-72
2023/09/06 02:41:38;;;;;;;7.60;5.95;;;;;;;;;;5018876;28;20257;-72
2023/09/06 02:44:05;;;;;;;6.57;5.88;;;;;;;;;;5023148;28;20597;-72
2023/09/06 02:46:33;;;;;;;7.07;6.10;;;;;;;;;;5029282;28;20241;-72
2023/09/06 02:49:10;;;;;;;8.55;6.43;;;;;;;;;;5027756;28;20256;-72
2023/09/06 02:51:42;;;;;;;11.00;6.32;;;;;;;;;;5027578;28;20194;-72
2023/09/06 02:54:08;;;;;;;6.47;5.78;;;;;;;;;;5028887;28;20668;-72
2023/09/06 02:56:37;;;;;;;7.50;6.03;;;;;;;;;;5022960;28;20190;-72
2023/09/06 02:59:07;;;;;;;7.07;6.35;;;;;;;;;;5016313;28;20201;-72
2023/09/06 03:01:35;;;;;;;7.47;6.78;;;;;;;;;;5027023;28;20202;-72
2023/09/06 03:04:06;;;;;;;8.77;7.55;;;;;;;;;;5023161;28;20194;-72
2023/09/06 03:06:33;;;;;;;9.73;8.73;;;;;;;;;;5024185;28;20357;-72
2023/09/06 03:08:59;;;;;;;9.25;8.35;;;;;;;;;;5020572;28;20197;-72
2023/09/06 03:11:25;;;;;;;11.98;9.02;;;;;;;;;;5028725;28;20191;-72
2023/09/06 03:13:55;;;;;;;13.10;9.20;;;;;;;;;;5011621;28;20194;-72
2023/09/06 03:16:24;;;;;;;11.43;9.23;;;;;;;;;;5044949;28;20201;-72
2023/09/06 03:18:49;;;;;;;10.77;9.68;;;;;;;;;;5013615;28;20211;-72
2023/09/06 03:21:18;;;;;;;13.85;9.82;;;;;;;;;;5027825;28;20205;-71
2023/09/06 03:23:45;;;;;;;10.77;8.93;;;;;;;;;;5021137;28;20598;-72
2023/09/06 03:26:10;;;;;;;14.00;9.90;;;;;;;;;;5030344;28;20301;-72
2023/09/06 03:28:42;;;;;;;10.43;9.32;;;;;;;;;;5026755;28;20274;-71
2023/09/06 03:31:12;;;;;;;10.30;9.15;;;;;;;;;;5023897;28;20218;-71
2023/09/06 03:33:41;;;;;;;10.15;8.95;;;;;;;;;;5014649;28;20626;-71
2023/09/06 03:36:08;;;;;;;12.80;9.05;;;;;;;;;;5022639;28;20200;-71
2023/09/06 03:38:36;;;;;;;12.85;8.82;;;;;;;;;;5027144;28;20747;-72
2023/09/06 03:41:02;;;;;;;9.02;8.07;;;;;;;;;;5018497;28;20186;-72
2023/09/06 03:43:32;;;;;;;9.52;8.63;;;;;;;;;;5028420;28;20237;-72
2023/09/06 03:45:58;;;;;;;11.05;8.13;;;;;;;;;;5001489;28;20202;-71
2023/09/06 03:48:27;;;;;;;8.68;7.78;;;;;;;;;;5027757;28;20638;-72
2023/09/06 03:50:58;;;;;;;11.70;9.52;;;;;;;;;;5028145;28;20190;-71
2023/09/06 03:53:25;;;;;;;11.65;9.77;;;;;;;;;;5022540;28;20209;-71
2023/09/06 03:55:51;;;;;;;14.02;9.07;;;;;;;;;;5025810;28;20178;-72
2023/09/06 03:58:17;;;;;;;9.45;8.48;;;;;;;;;;5045565;28;20185;-72
2023/09/06 04:00:44;;;;;;;11.27;9.15;;;;;;;;;;5029177;28;20270;-71
2023/09/06 04:03:10;;;;;;;11.05;9.65;;;;;;;;;;5020019;28;20198;-71
2023/09/06 04:05:36;;;;;;;11.23;8.48;;;;;;;;;;5020451;28;20288;-71
2023/09/06 04:08:06;;;;;;;11.48;9.63;;;;;;;;;;5037400;28;20194;-71
2023/09/06 04:10:38;;;;;;;12.43;8.60;;;;;;;;;;5021818;28;20654;-72
2023/09/06 04:13:09;;;;;;;10.13;8.95;;;;;;;;;;5026280;28;20696;-71
2023/09/06 04:15:35;;;;;;;10.70;8.38;;;;;;;;;;5024735;28;20202;-72
2023/09/06 04:18:02;;;;;;;9.82;8.82;;;;;;;;;;5023623;28;20203;-72
2023/09/06 04:20:31;;;;;;;11.10;9.50;;;;;;;;;;5026728;28;20553;-72
2023/09/06 04:23:00;;;;;;;10.10;9.10;;;;;;;;;;5018487;28;20194;-71
2023/09/06 04:25:26;;;;;;;12.60;9.38;;;;;;;;;;5025709;28;20693;-71
2023/09/06 04:27:55;;;;;;;10.52;8.93;;;;;;;;;;5028746;28;20296;-71
2023/09/06 04:30:28;;;;;;;10.18;9.10;;;;;;;;;;5029476;28;20194;-71
2023/09/06 04:33:00;;;;;;;12.90;10.48;;;;;;;;;;5023810;28;20287;-72
2023/09/06 04:35:38;;;;;;;12.02;9.57;;;;;;;;;;5022040;28;20228;-71
2023/09/06 04:38:04;;;;;;;10.65;9.35;;;;;;;;;;5042739;28;20499;-72
2023/09/06 04:40:29;;;;;;;9.43;8.45;;;;;;;;;;5024623;28;20200;-72
2023/09/06 04:42:55;;;;;;;9.98;8.88;;;;;;;;;;5019762;28;20752;-72
2023/09/06 04:45:20;;;;;;;10.48;9.38;;;;;;;;;;5027166;28;20241;-71
2023/09/06 04:47:46;;;;;;;11.93;10.43;;;;;;;;;;5010111;28;20646;-72
2023/09/06 04:50:11;;;;;;;10.73;9.63;;;;;;;;;;5023652;28;20190;-71
2023/09/06 04:52:44;;;;;;;10.80;9.40;;;;;;;;;;5009210;28;20202;-71
2023/09/06 04:55:12;;;;;;;14.57;10.32;;;;;;;;;;5009762;28;20576;-72
2023/09/06 04:57:38;;;;;;;11.45;9.75;;;;;;;;;;5013710;28;20444;-72
2023/09/06 05:00:17;;;;;;;11.75;9.30;;;;;;;;;;5019215;28;20249;-73
2023/09/06 05:02:46;;;;;;;16.63;9.85;;;;;;;;;;5023005;28;20605;-72
2023/09/06 05:05:16;;;;;;;11.70;9.95;;;;;;;;;;5014979;28;20203;-72
2023/09/06 05:07:42;;;;;;;13.25;9.80;;;;;;;;;;5021560;28;20197;-72
2023/09/06 05:10:11;;;;;;;11.07;9.55;;;;;;;;;;5023528;28;20182;-72
2023/09/06 05:12:36;;;;;;;10.02;9.02;;;;;;;;;;5020973;28;20642;-72
2023/09/06 05:15:03;;;;;;;10.45;8.43;;;;;;;;;;5018429;28;20244;-72
2023/09/06 05:17:28;;;;;;;14.90;9.32;;;;;;;;;;5039408;28;20228;-72
2023/09/06 05:19:54;;;;;;;9.85;8.77;;;;;;;;;;5020100;28;20273;-72
2023/09/06 05:22:19;;;;;;;11.98;8.35;;;;;;;;;;5018912;28;20218;-72
2023/09/06 05:24:49;;;;;;;11.23;8.23;;;;;;;;;;5021101;28;20182;-71
2023/09/06 05:27:14;;;;;;;12.27;8.60;;;;;;;;;;5016330;28;20256;-71
2023/09/06 05:29:39;;;;;;;9.93;8.93;;;;;;;;;;5023463;28;20205;-71
2023/09/06 05:32:05;;;;;;;11.82;9.00;;;;;;;;;;5023581;28;20270;-72
2023/09/06 05:34:30;;;;;;;9.77;8.77;;;;;;;;;;5019513;28;20552;-72
2023/09/06 05:36:56;;;;;;;10.27;8.68;;;;;;;;;;5031465;28;20186;-72
2023/09/06 05:39:21;;;;;;;11.27;9.10;;;;;;;;;;5017314;28;20222;-71
2023/09/06 05:41:48;;;;;;;12.45;9.13;;;;;;;;;;5013805;28;20283;-73
2023/09/06 05:44:13;;;;;;;12.27;8.50;;;;;;;;;;5021291;28;20248;-72
2023/09/06 05:46:39;;;;;;;11.45;8.80;;;;;;;;;;5015522;28;20912;-72
2023/09/06 05:49:05;;;;;;;10.35;8.15;;;;;;;;;;5023034;28;20194;-72
2023/09/06 05:51:31;;;;;;;8.73;7.82;;;;;;;;;;5022321;28;20229;-72
2023/09/06 05:53:58;;;;;;;9.48;7.88;;;;;;;;;;5021412;28;20187;-72
2023/09/06 05:56:24;;;;;;;11.70;8.95;;;;;;;;;;5023891;28;20182;-72
2023/09/06 05:58:49;;;;;;;9.18;8.27;;;;;;;;;;5028423;28;20185;-72
2023/09/06 06:01:17;;;;;;;11.20;9.23;;;;;;;;;;5026006;28;20198;-73
2023/09/06 06:03:43;;;;;;;12.40;8.75;;;;;;;;;;5038245;28;20191;-72
2023/09/06 06:06:10;;;;;;;11.52;9.13;;;;;;;;;;5023889;28;20205;-73
2023/09/06 06:08:37;;;;;;;9.88;8.32;;;;;;;;;;5029415;28;20194;-73
2023/09/06 06:11:03;;;;;;;11.70;9.10;;;;;;;;;;5026805;28;20615;-73
2023/09/06 06:13:28;;;;;;;10.57;9.18;;;;;;;;;;5022584;28;20190;-72
2023/09/06 06:15:53;;;;;;;11.88;9.05;;;;;;;;;;5025012;28;20191;-73
2023/09/06 06:18:19;;;;;;;10.40;9.05;;;;;;;;;;5019996;28;20213;-73
2023/09/06 06:20:44;;;;;;;11.38;9.20;;;;;;;;;;5045315;28;20217;-73
2023/09/06 06:23:10;;;;;;;10.25;9.10;;;;;;;;;;5013613;28;20222;-73
2023/09/06 06:25:36;;;;;;;14.23;8.65;;;;;;;;;;5023545;28;20222;-72
2023/09/06 06:28:01;;;;;;;8.10;7.18;;;;;;;;;;5020270;28;20278;-73
2023/09/06 06:30:26;;;;;;;10.77;8.98;;;;;;;;;;5025821;28;20190;-73
2023/09/06 06:32:52;;;;;;;9.40;8.20;;;;;;;;;;5028608;28;20212;-73
2023/09/06 06:35:18;;;;;;;10.82;8.65;;;;;;;;;;5016306;28;20201;-73
2023/09/06 06:37:43;;;;;;;10.98;9.23;;;;;;;;;;5031760;28;20221;-74
2023/09/06 06:40:09;;;;;;;9.95;8.95;;;;;;;;;;5015584;28;20202;-73
2023/09/06 06:42:35;;;;;;;17.23;8.98;;;;;;;;;;5017749;28;20696;-73
2023/09/06 06:45:02;;;;;;;9.85;8.02;;;;;;;;;;5030212;28;20214;-73
2023/09/06 06:47:27;;;;;;;12.20;8.23;;;;;;;;;;5028433;28;20273;-74
2023/09/06 06:49:54;;;;;;;8.65;7.03;;;;;;;;;;5016733;28;20677;-73
2023/09/06 06:52:20;;;;;;;7.60;6.72;;;;;;;;;;5018892;28;20218;-73
2023/09/06 06:54:46;;;;;;;10.00;7.22;;;;;;;;;;5018228;28;20310;-72
2023/09/06 06:57:11;;;;;;;7.95;6.82;;;;;;;;;;5013342;28;20197;-72
2023/09/06 06:59:37;;;;;;;8.55;6.55;;;;;;;;;;5028282;28;20666;-73
2023/09/06 07:02:02;;;;;;;9.15;7.30;;;;;;;;;;5020303;28;20540;-72
2023/09/06 07:04:28;;;;;;;7.10;6.30;;;;;;;;;;5026965;28;20221;-73
2023/09/06 07:06:53;;;;;;;9.00;6.38;;;;;;;;;;5025584;28;20709;-73
2023/09/06 07:09:19;;;;;;;8.90;6.85;;;;;;;;;;5011142;28;20197;-73
2023/09/06 07:11:44;;;;;;;7.03;6.18;;;;;;;;;;5027483;28;20260;-74
2023/09/06 07:14:09;;;;;;;8.95;5.68;;;;;;;;;;5029013;28;20213;-74
2023/09/06 07:16:35;;;;;;;8.38;5.82;;;;;;;;;;5026384;28;20625;-72
2023/09/06 07:19:00;;;;;;;6.55;5.28;;;;;;;;;;5016067;28;20215;-72
2023/09/06 07:21:26;;;;;;;9.48;6.00;;;;;;;;;;5019978;28;20198;-73
2023/09/06 07:23:52;;;;;;;8.40;5.00;;;;;;;;;;5016698;28;20690;-73
2023/09/06 07:26:17;;;;;;;7.93;5.20;;;;;;;;;;5021093;28;20215;-70
2023/09/06 07:28:46;;;;;;;9.85;5.35;;;;;;;;;;5026184;28;20272;-73
2023/09/06 07:31:14;;;;;;;6.35;5.10;;;;;;;;;;5020816;28;20277;-74
2023/09/06 07:33:39;;;;;;;7.15;4.70;;;;;;;;;;5030179;28;20637;-73
2023/09/06 07:36:05;;;;;;;7.90;4.38;;;;;;;;;;5025715;28;20185;-73
2023/09/06 07:38:31;;;;;;;8.25;3.72;;;;;;;;;;5024236;28;20179;-76
2023/09/06 07:40:57;;;;;;;5.15;3.58;;;;;;;;;;5022227;28;20197;-73
2023/09/06 07:43:28;;;;;;;5.53;3.53;;;;;;;;;;5015140;28;20596;-72
2023/09/06 07:45:57;;;;;;;7.35;3.70;;;;;;;;;;5025659;28;20226;-73
2023/09/06 07:48:24;;;;;;;6.13;3.00;;;;;;;;;;5028627;28;20240;-73
2023/09/06 07:50:50;;;;;;;5.10;3.40;;;;;;;;;;5042995;28;20217;-73
2023/09/06 07:53:15;;;;;;;7.85;3.53;;;;;;;;;;5020452;28;20687;-73
2023/09/06 07:55:43;;;;;;;6.95;3.35;;;;;;;;;;5014812;28;20525;-73
2023/09/06 07:58:09;;;;;;;6.50;3.15;;;;;;;;;;5017593;28;20194;-74
2023/09/06 08:00:36;;;;;;;6.65;3.67;;;;;;;;;;5022523;28;20245;-74
2023/09/06 08:03:02;;;;;;;5.97;3.00;;;;;;;;;;5023403;28;20212;-73
2023/09/06 08:05:27;;;;;;;3.95;2.95;;;;;;;;;;5019038;28;20210;-72
2023/09/06 08:07:53;;;;;;;5.50;3.20;;;;;;;;;;5023406;28;20194;-72
2023/09/06 08:10:18;;;;;;;8.23;3.22;;;;;;;;;;5026608;28;20198;-72
2023/09/06 08:12:43;;;;;;;5.75;3.15;;;;;;;;;;5030725;28;20189;-74
2023/09/06 08:15:09;;;;;;;8.50;3.10;;;;;;;;;;5013712;28;20725;-73
2023/09/06 08:17:34;;;;;;;5.90;3.47;;;;;;;;;;5020070;28;20218;-73
2023/09/06 08:20:00;;;;;;;6.95;2.78;;;;;;;;;;5013258;28;20199;-73
2023/09/06 08:22:25;;;;;;;6.43;2.97;;;;;;;;;;5020667;28;20287;-73
2023/09/06 08:24:50;;;;;;;5.47;2.80;;;;;;;;;;5022925;28;20193;-73
2023/09/06 08:27:16;;;;;;;6.10;2.75;;;;;;;;;;5026283;28;20194;-73
2023/09/06 08:29:41;;;;;;;5.30;2.78;;;;;;;;;;5021256;28;20642;-73
2023/09/06 08:32:08;;;;;;;3.40;2.70;;;;;;;;;;5016131;28;20210;-73
2023/09/06 08:34:33;;;;;;;3.65;2.60;;;;;;;;;;5044633;28;20296;-73
2023/09/06 08:36:59;;;;;;;5.03;2.72;;;;;;;;;;5016595;28;20258;-73
2023/09/06 08:39:24;;;;;;;7.85;2.92;;;;;;;;;;5022784;28;20186;-72
2023/09/06 08:41:51;;;;;;;4.43;2.63;;;;;;;;;;5035550;28;20316;-73
2023/09/06 08:44:18;;;;;;;3.90;2.85;;;;;;;;;;5043892;28;20221;-72
2023/09/06 08:46:45;;;;;;;4.30;2.50;;;;;;;;;;5010754;28;20214;-72
2023/09/06 08:49:12;;;;;;;4.68;2.60;;;;;;;;;;5015279;28;20241;-73
2023/09/06 08:51:39;;;;;;;7.35;2.85;;;;;;;;;;5028575;28;20181;-73
2023/09/06 08:54:08;;;;;;;5.20;2.90;;;;;;;;;;5009756;28;20268;-73
2023/09/06 08:56:34;;;;;;;3.75;2.90;;;;;;;;;;5023510;28;20190;-73
2023/09/06 08:59:00;;;;;;;5.25;2.78;;;;;;;;;;5029458;28;20217;-73
2023/09/06 09:01:27;;;;;;;4.63;2.58;;;;;;;;;;5018315;28;20190;-74
2023/09/06 09:03:53;;;;;;;4.80;2.42;;;;;;;;;;5039809;28;20515;-73
2023/09/06 09:06:19;;;;;;;5.00;2.83;;;;;;;;;;5028778;28;20312;-74
2023/09/06 09:08:44;;;;;;;5.53;2.50;;;;;;;;;;5020275;28;20281;-72
2023/09/06 09:11:21;;;;;;;6.88;2.50;;;;;;;;;;5039929;28;20174;-72
2023/09/06 09:13:46;;;;;;;5.43;2.42;;;;;;;;;;5020779;28;20244;-73
2023/09/06 09:16:14;;;;;;;4.70;2.28;;;;;;;;;;5028661;28;20240;-73
2023/09/06 09:18:40;;;;;;;3.70;2.45;;;;;;;;;;5029386;28;20748;-73
2023/09/06 09:21:10;;;;;;;4.57;2.35;;;;;;;;;;5027348;28;20668;-72
2023/09/06 09:24:05;;;;;;;5.20;2.80;;;;;;;;;;5023923;28;20214;-72
2023/09/06 09:26:32;;;;;;;3.10;2.42;;;;;;;;;;5014222;28;20717;-71
2023/09/06 09:29:03;;;;;;;2.72;2.15;;;;;;;;;;5013423;28;20709;-71
2023/09/06 09:31:30;;;;;;;3.65;2.47;;;;;;;;;;5012807;28;20578;-72
2023/09/06 09:33:55;;;;;;;3.60;2.63;;;;;;;;;;5023827;28;20253;-70
2023/09/06 09:36:22;;;;;;;5.25;2.67;;;;;;;;;;5022389;28;20194;-72
2023/09/06 09:38:49;;;;;;;4.32;2.70;;;;;;;;;;5027741;28;20261;-71
2023/09/06 09:41:15;;;;;;;4.15;2.65;;;;;;;;;;5036668;28;20198;-72
2023/09/06 09:43:40;;;;;;;3.58;2.75;;;;;;;;;;5028707;28;20238;-71
2023/09/06 09:46:09;;;;;;;4.07;2.60;;;;;;;;;;5031941;28;20210;-72
2023/09/06 09:48:35;;;;;;;4.70;2.63;;;;;;;;;;5020220;28;20194;-73
2023/09/06 09:51:04;;;;;;;4.13;2.67;;;;;;;;;;5026441;28;20659;-71
2023/09/06 09:53:31;;;;;;;4.82;2.58;;;;;;;;;;5018319;28;20193;-72
2023/09/06 09:56:01;;;;;;;5.68;2.50;;;;;;;;;;5038460;28;20590;-72
2023/09/06 09:58:27;;;;;;;2.85;2.55;;;;;;;;;;5028823;28;20689;-72
2023/09/06 10:00:54;;;;;;;3.83;2.50;;;;;;;;;;5039952;28;20273;-72
2023/09/06 10:03:21;;;;;;;4.57;2.42;;;;;;;;;;5031728;28;20185;-72
2023/09/06 10:05:47;;;;;;;5.13;2.60;;;;;;;;;;5032880;28;20259;-72
2023/09/06 10:08:14;;;;;;;5.70;2.80;;;;;;;;;;5028325;28;20209;-72
2023/09/06 10:10:40;;;;;;;4.90;2.53;;;;;;;;;;5020282;28;20183;-73
2023/09/06 10:13:07;;;;;;;5.30;2.60;;;;;;;;;;5026098;28;20202;-72
2023/09/06 10:15:37;;;;;;;5.25;3.15;;;;;;;;;;5017639;28;20210;-72
2023/09/06 10:18:04;;;;;;;3.88;2.88;;;;;;;;;;5035738;28;20304;-72
2023/09/06 10:20:32;;;;;;;4.07;2.80;;;;;;;;;;5041473;28;20185;-72
2023/09/06 10:22:59;;;;;;;3.70;2.80;;;;;;;;;;5025719;28;20193;-72
2023/09/06 10:25:28;;;;;;;4.38;2.70;;;;;;;;;;5035151;28;20205;-71
2023/09/06 10:27:57;;;;;;;3.63;3.08;;;;;;;;;;5027764;28;20186;-73
2023/09/06 10:30:45;;;;;;;4.80;2.45;;;;;;;;;;5029827;28;20182;-72
2023/09/06 10:33:33;;;;;;;4.40;2.50;;;;;;;;;;5018934;28;20187;-73
2023/09/06 10:36:04;;;;;;;5.90;2.53;;;;;;;;;;5016428;28;20904;-72
2023/09/06 10:38:30;;;;;;;6.60;3.00;;;;;;;;;;5029844;28;20186;-72
2023/09/06 10:40:55;;;;;;;4.45;2.72;;;;;;;;;;5030823;28;20204;-73
2023/09/06 10:43:28;;;;;;;3.13;2.38;;;;;;;;;;5029636;28;20300;-73
2023/09/06 10:46:08;;;;;;;5.97;2.97;;;;;;;;;;5030457;28;20577;-73
2023/09/06 10:48:34;;;;;;;4.47;2.60;;;;;;;;;;5044743;28;20198;-73
2023/09/06 10:51:11;;;;;;;5.78;3.13;;;;;;;;;;5016317;28;20190;-73
2023/09/06 10:53:37;;;;;;;4.05;2.45;;;;;;;;;;5029143;28;20205;-73
2023/09/06 10:56:03;;;;;;;4.90;2.50;;;;;;;;;;5024493;28;20182;-73
2023/09/06 10:58:30;;;;;;;4.65;2.70;;;;;;;;;;5021706;28;20194;-73
2023/09/06 11:01:17;;;;;;;4.63;2.42;;;;;;;;;;5014872;28;20195;-72
2023/09/06 11:03:48;;;;;;;2.92;2.30;;;;;;;;;;5011406;28;20205;-73
2023/09/06 11:06:13;;;;;;;4.20;2.50;;;;;;;;;;5026157;28;20254;-73
2023/09/06 11:08:40;;;;;;;2.70;2.50;;;;;;;;;;5038418;28;20229;-73
2023/09/06 11:11:08;;;;;;;2.95;2.40;;;;;;;;;;5007931;28;20643;-73
2023/09/06 11:13:35;;;;;;;4.05;2.92;;;;;;;;;;5029418;28;20313;-73
2023/09/06 11:16:03;;;;;;;6.50;2.40;;;;;;;;;;5021559;28;20213;-73
2023/09/06 11:18:30;;;;;;;2.83;2.40;;;;;;;;;;5038993;28;20218;-72
2023/09/06 11:20:56;;;;;;;4.60;2.40;;;;;;;;;;5022559;28;20533;-73
2023/09/06 11:23:22;;;;;;;4.53;2.30;;;;;;;;;;5030515;28;20197;-73
2023/09/06 11:25:56;;;;;;;5.43;2.40;;;;;;;;;;5032641;28;20297;-73
2023/09/06 11:28:22;;;;;;;4.57;2.58;;;;;;;;;;5029550;28;20185;-73
2023/09/06 11:30:47;;;;;;;2.45;2.22;;;;;;;;;;5023324;28;20278;-73
2023/09/06 11:33:15;;;;;;;3.17;2.30;;;;;;;;;;5038407;28;20190;-73
2023/09/06 11:35:55;;;;;;;2.63;2.20;;;;;;;;;;5023387;28;20741;-73
2023/09/06 11:38:28;;;;;;;2.38;2.00;;;;;;;;;;5025971;28;20186;-73
2023/09/06 11:40:56;;;;;;;2.05;1.90;;;;;;;;;;5024618;28;20215;-73
2023/09/06 11:43:26;;;;;;;2.58;2.35;;;;;;;;;;5029794;28;20225;-73
2023/09/06 11:46:01;;;;;;;3.78;2.35;;;;;;;;;;5019856;28;20244;-73
2023/09/06 11:48:30;;;;;;;3.65;2.35;;;;;;;;;;5026713;28;20601;-73
2023/09/06 11:51:08;;;;;;;3.45;2.10;;;;;;;;;;5030138;28;20221;-73
2023/09/06 11:53:35;;;;;;;10.30;2.67;;;;;;;;;;5027107;28;20192;-74
2023/09/06 11:56:00;;;;;;;3.83;2.30;;;;;;;;;;5015177;28;20773;-72
2023/09/06 11:58:27;;;;;;;4.05;1.95;;;;;;;;;;5029569;28;20335;-74
2023/09/06 12:00:56;;;;;;;3.10;2.50;;;;;;;;;;5029188;28;20281;-74
2023/09/06 12:03:29;;;;;;;2.55;2.22;;;;;;;;;;5017708;28;20186;-74
2023/09/06 12:05:56;;;;;;;3.35;2.00;;;;;;;;;;5017219;28;20206;-74
2023/09/06 12:08:23;;;;;;;3.22;2.20;;;;;;;;;;5015000;28;20186;-74
2023/09/06 12:10:53;;;;;;;2.10;1.90;;;;;;;;;;5028618;28;20213;-73
2023/09/06 12:13:34;;;;;;;4.07;1.98;;;;;;;;;;5027720;28;20194;-74
2023/09/06 12:16:00;;;;;;;3.95;2.20;;;;;;;;;;5011348;28;20197;-74
2023/09/06 12:18:28;;;;;;;2.97;2.22;;;;;;;;;;5026871;28;20245;-74
2023/09/06 12:20:56;;;;;;;2.67;2.28;;;;;;;;;;5029478;28;20186;-74
2023/09/06 12:23:23;;;;;;;5.50;2.30;;;;;;;;;;5039060;28;20244;-74
2023/09/06 12:25:48;;;;;;;2.72;2.08;;;;;;;;;;5008804;28;20214;-75
2023/09/06 12:28:14;;;;;;;2.22;2.03;;;;;;;;;;5027763;28;20277;-75
2023/09/06 12:30:39;;;;;;;2.65;1.80;;;;;;;;;;5030567;28;20587;-75
2023/09/06 12:33:05;;;;;;;2.50;2.05;;;;;;;;;;5029102;28;20193;-75
2023/09/06 12:35:35;;;;;;;5.28;1.90;;;;;;;;;;5015474;28;20182;-75
2023/09/06 12:38:01;;;;;;;2.80;2.10;;;;;;;;;;5030266;28;20592;-74
2023/09/06 12:40:27;;;;;;;2.25;2.00;;;;;;;;;;5014176;28;20206;-75
2023/09/06 12:42:53;;;;;;;2.85;1.90;;;;;;;;;;5028323;28;20238;-74
2023/09/06 12:45:23;;;;;;;2.15;1.90;;;;;;;;;;5008851;28;20309;-74
2023/09/06 12:47:48;;;;;;;3.53;2.00;;;;;;;;;;5026615;28;20190;-75
2023/09/06 12:50:14;;;;;;;3.38;1.80;;;;;;;;;;5030086;28;20193;-73
2023/09/06 12:52:39;;;;;;;2.40;2.20;;;;;;;;;;5029186;28;20296;-73
2023/09/06 12:55:05;;;;;;;3.80;1.90;;;;;;;;;;5029620;28;20665;-74
2023/09/06 12:57:31;;;;;;;2.28;1.73;;;;;;;;;;5029878;28;20273;-74
2023/09/06 12:59:57;;;;;;;4.40;2.10;;;;;;;;;;5025344;28;20748;-74
2023/09/06 13:02:25;;;;;;;3.17;1.88;;;;;;;;;;5021035;28;20229;-72
2023/09/06 13:04:50;;;;;;;2.78;2.13;;;;;;;;;;5022628;28;20190;-74
2023/09/06 13:07:16;;;;;;;2.70;1.60;;;;;;;;;;5027188;28;20181;-74
2023/09/06 13:09:41;;;;;;;4.03;2.00;;;;;;;;;;5016928;28;20281;-74
2023/09/06 13:12:07;;;;;;;4.18;2.20;;;;;;;;;;5006331;28;20256;-73
2023/09/06 13:14:33;;;;;;;2.42;1.92;;;;;;;;;;5021509;28;20662;-72
2023/09/06 13:16:58;;;;;;;3.65;2.20;;;;;;;;;;5023090;28;20289;-74
2023/09/06 13:19:24;;;;;;;2.47;1.90;;;;;;;;;;5024927;28;20190;-73
2023/09/06 13:21:50;;;;;;;2.20;2.00;;;;;;;;;;4326823;28;10000726;-73
2023/09/06 13:24:16;;;;;;;3.20;2.00;;;;;;;;;;5023081;28;20452;-74
2023/09/06 13:26:44;;;;;;;2.25;2.00;;;;;;;;;;5017939;28;20217;-73
2023/09/06 13:29:09;;;;;;;4.47;2.20;;;;;;;;;;5023067;28;20187;-73
2023/09/06 13:31:34;;;;;;;3.17;2.00;;;;;;;;;;5026912;28;20588;-73
2023/09/06 13:34:00;;;;;;;2.65;1.83;;;;;;;;;;5023601;28;20617;-74
2023/09/06 13:36:25;;;;;;;3.20;2.30;;;;;;;;;;5019887;28;20224;-74
2023/09/06 13:38:52;;;;;;;2.45;1.83;;;;;;;;;;5033831;28;20189;-74
2023/09/06 13:41:17;;;;;;;2.78;1.80;;;;;;;;;;5015571;28;20646;-73
2023/09/06 13:43:42;;;;;;;2.97;1.88;;;;;;;;;;5016180;28;20230;-73
2023/09/06 13:46:08;;;;;;;4.03;1.83;;;;;;;;;;5014089;28;20210;-74
2023/09/06 13:48:33;;;;;;;2.08;1.88;;;;;;;;;;5016231;28;20236;-74
2023/09/06 13:50:58;;;;;;;2.95;1.92;;;;;;;;;;5010114;28;20198;-74
2023/09/06 13:53:24;;;;;;;3.90;1.90;;;;;;;;;;5023194;28;20637;-74
2023/09/06 13:55:49;;;;;;;3.60;1.90;;;;;;;;;;5021381;28;20182;-74
2023/09/06 13:58:14;;;;;;;3.35;1.95;;;;;;;;;;5014762;28;20186;-74
2023/09/06 14:00:40;;;;;;;3.25;1.90;;;;;;;;;;5013324;28;20195;-74
2023/09/06 14:03:05;;;;;;;2.83;1.95;;;;;;;;;;5018445;28;20627;-75
2023/09/06 14:05:33;;;;;;;3.67;1.90;;;;;;;;;;5024052;28;20210;-74
2023/09/06 14:07:58;;;;;;;2.08;1.83;;;;;;;;;;5025618;28;20194;-74
2023/09/06 14:10:23;;;;;;;5.28;1.90;;;;;;;;;;5027130;28;20194;-73
2023/09/06 14:12:49;;;;;;;1.75;1.52;;;;;;;;;;5030025;28;20202;-74
2023/09/06 14:15:14;;;;;;;1.67;1.58;;;;;;;;;;5026945;28;20189;-74
2023/09/06 14:17:40;;;;;;;2.08;1.80;;;;;;;;;;5035160;28;20206;-75
2023/09/06 14:20:06;;;;;;;3.13;1.65;;;;;;;;;;5028793;28;20192;-73
2023/09/06 14:22:31;;;;;;;3.38;1.90;;;;;;;;;;5025203;28;20240;-73
2023/09/06 14:24:57;;;;;;;1.67;1.52;;;;;;;;;;5024148;28;20205;-73
2023/09/06 14:27:22;;;;;;;2.00;1.85;;;;;;;;;;5042032;28;20199;-73
2023/09/06 14:29:49;;;;;;;2.75;1.73;;;;;;;;;;5022680;28;20253;-73
2023/09/06 14:32:14;;;;;;;2.33;1.80;;;;;;;;;;5030257;28;20274;-74
2023/09/06 14:34:40;;;;;;;3.03;1.80;;;;;;;;;;5030402;28;20653;-73
2023/09/06 14:37:05;;;;;;;3.25;1.83;;;;;;;;;;5041581;28;20685;-74
2023/09/06 14:39:32;;;;;;;1.80;1.70;;;;;;;;;;5035757;28;20201;-74
2023/09/06 14:41:58;;;;;;;2.85;1.80;;;;;;;;;;5027483;28;20185;-73